Time;durP1;ratioP1;P1;durP2;ratioP2;P2;SDS_P1;SDS_P2;PMS_P1;PMS_P2;Temp;Humidity;BMP_temperature;BMP_pressure;BME280_temperature;BME280_humidity;BME280_pressure;Samples;Min_cycle;Max_cycle;Signal;HPM_P1;HPM_P2
2021/05/05 00:00:14;;;;;;;2.00;1.00;;;21.20;45.00;;;;;;5005962;28;20419;-66
2021/05/05 00:02:40;;;;;;;2.45;1.10;;;21.20;44.90;;;;;;5002487;28;20415;-66
2021/05/05 00:05:07;;;;;;;1.80;0.80;;;21.20;44.80;;;;;;5005840;28;20411;-66
2021/05/05 00:07:33;;;;;;;1.85;0.80;;;21.20;44.40;;;;;;4992456;28;20423;-66
2021/05/05 00:10:00;;;;;;;1.40;0.90;;;21.20;44.70;;;;;;4996389;28;20527;-66
2021/05/05 00:12:26;;;;;;;1.63;0.70;;;21.20;44.80;;;;;;4977718;28;20422;-67
2021/05/05 00:14:53;;;;;;;1.20;0.80;;;21.20;44.80;;;;;;4989520;28;20497;-66
2021/05/05 00:17:19;;;;;;;4.05;0.80;;;21.20;44.50;;;;;;5020040;28;20474;-67
2021/05/05 00:19:45;;;;;;;3.28;0.70;;;21.20;44.70;;;;;;4998288;28;20846;-67
2021/05/05 00:22:11;;;;;;;1.90;1.13;;;21.20;44.70;;;;;;5004985;28;20419;-66
2021/05/05 00:24:37;;;;;;;1.77;1.02;;;21.20;44.60;;;;;;5006886;28;20415;-66
2021/05/05 00:27:05;;;;;;;1.80;0.63;;;21.20;44.70;;;;;;5009379;28;20524;-66
2021/05/05 00:29:31;;;;;;;1.30;0.82;;;21.10;44.40;;;;;;5006165;28;20407;-67
2021/05/05 00:31:58;;;;;;;3.20;0.80;;;21.10;44.50;;;;;;5005222;28;20446;-67
2021/05/05 00:34:24;;;;;;;1.10;0.90;;;21.10;44.50;;;;;;5000966;28;20423;-67
2021/05/05 00:36:50;;;;;;;2.90;0.80;;;21.10;44.40;;;;;;5007598;28;20407;-67
2021/05/05 00:39:16;;;;;;;1.27;0.60;;;21.10;44.30;;;;;;5008826;28;20421;-67
2021/05/05 00:41:42;;;;;;;0.60;0.60;;;21.10;44.40;;;;;;5011011;28;20430;-66
2021/05/05 00:44:08;;;;;;;1.05;0.50;;;21.10;44.30;;;;;;5007262;28;20411;-67
2021/05/05 00:46:35;;;;;;;3.03;0.60;;;21.10;44.20;;;;;;5009879;28;20782;-66
2021/05/05 00:49:02;;;;;;;3.53;1.00;;;21.20;44.40;;;;;;5008275;28;20415;-66
2021/05/05 00:51:28;;;;;;;0.80;0.70;;;21.20;44.40;;;;;;5004373;28;21679;-67
2021/05/05 00:53:54;;;;;;;1.73;0.80;;;21.20;44.40;;;;;;4988747;28;20506;-66
2021/05/05 00:56:20;;;;;;;1.10;0.80;;;21.20;44.10;;;;;;4980869;28;20956;-68
2021/05/05 00:58:46;;;;;;;2.50;0.80;;;21.20;44.20;;;;;;4991194;28;20417;-67
2021/05/05 01:01:12;;;;;;;1.95;0.80;;;21.10;44.20;;;;;;4981809;28;20408;-66
2021/05/05 01:03:38;;;;;;;2.70;0.93;;;21.10;44.10;;;;;;4987892;28;20490;-67
2021/05/05 01:06:05;;;;;;;2.17;0.60;;;21.10;44.00;;;;;;4987290;28;20422;-68
2021/05/05 01:08:32;;;;;;;1.00;0.60;;;21.10;43.70;;;;;;5022911;28;20926;-67
2021/05/05 01:10:58;;;;;;;2.85;0.70;;;21.10;44.10;;;;;;4987105;28;20437;-67
2021/05/05 01:13:25;;;;;;;1.55;0.88;;;21.10;44.10;;;;;;5002285;28;21051;-67
2021/05/05 01:15:51;;;;;;;4.40;0.90;;;21.10;44.10;;;;;;4998769;28;20502;-67
2021/05/05 01:18:17;;;;;;;2.05;0.60;;;21.10;43.90;;;;;;5011321;28;20477;-67
2021/05/05 01:20:43;;;;;;;2.80;0.70;;;21.10;43.80;;;;;;5001026;28;20419;-66
2021/05/05 01:23:10;;;;;;;1.20;0.70;;;21.10;43.90;;;;;;5001999;28;20492;-67
2021/05/05 01:25:36;;;;;;;2.13;0.82;;;21.10;43.80;;;;;;4982524;28;20457;-67
2021/05/05 01:28:03;;;;;;;1.20;0.70;;;21.10;44.10;;;;;;5003955;28;20797;-66
2021/05/05 01:30:29;;;;;;;3.70;1.10;;;21.10;43.80;;;;;;4999684;28;20415;-67
2021/05/05 01:32:55;;;;;;;2.87;1.20;;;21.10;43.80;;;;;;4999800;28;20941;-67
2021/05/05 01:35:21;;;;;;;2.63;1.00;;;21.10;44.10;;;;;;5003456;28;20496;-67
2021/05/05 01:37:48;;;;;;;1.30;0.82;;;21.10;43.80;;;;;;4997227;28;20463;-67
2021/05/05 01:40:18;;;;;;;1.40;0.70;;;21.10;43.80;;;;;;5013520;28;20502;-66
2021/05/05 01:42:45;;;;;;;3.08;0.70;;;21.20;43.70;;;;;;5010386;28;20468;-66
2021/05/05 01:45:12;;;;;;;3.55;0.70;;;21.20;43.60;;;;;;5010900;28;20735;-67
2021/05/05 01:47:38;;;;;;;1.80;0.50;;;21.20;43.70;;;;;;4998885;28;20424;-66
2021/05/05 01:50:05;;;;;;;2.30;0.90;;;21.20;43.70;;;;;;4995126;28;20418;-65
2021/05/05 01:52:31;;;;;;;1.45;0.80;;;21.20;43.50;;;;;;4983887;28;20481;-67
2021/05/05 01:54:57;;;;;;;1.77;0.95;;;21.10;43.50;;;;;;4991642;28;20474;-67
2021/05/05 01:57:36;;;;;;;1.70;1.00;;;21.10;43.20;;;;;;4999976;28;20411;-67
2021/05/05 02:00:05;;;;;;;1.83;0.80;;;21.10;43.20;;;;;;4990543;28;20422;-67
2021/05/05 02:02:31;;;;;;;0.95;0.70;;;21.10;43.30;;;;;;5008865;28;20413;-66
2021/05/05 02:04:57;;;;;;;2.60;0.90;;;21.10;43.20;;;;;;5002915;28;20818;-66
2021/05/05 02:07:23;;;;;;;0.60;0.60;;;21.10;43.20;;;;;;5004495;28;20485;-67
2021/05/05 02:09:50;;;;;;;1.95;0.90;;;21.10;43.30;;;;;;5011964;28;20516;-66
2021/05/05 02:12:16;;;;;;;1.85;0.85;;;21.10;43.40;;;;;;5008400;28;20417;-67
2021/05/05 02:14:43;;;;;;;2.00;0.60;;;21.10;43.40;;;;;;5011848;28;20422;-67
2021/05/05 02:17:09;;;;;;;1.10;0.70;;;21.10;43.40;;;;;;4997626;28;20422;-67
2021/05/05 02:19:35;;;;;;;1.17;0.60;;;21.10;43.40;;;;;;4966124;28;20438;-67
2021/05/05 02:22:01;;;;;;;3.42;1.00;;;21.10;43.20;;;;;;4993993;28;20969;-67
2021/05/05 02:24:28;;;;;;;0.85;0.50;;;21.10;43.20;;;;;;5009255;28;20899;-67
2021/05/05 02:26:54;;;;;;;1.77;0.80;;;21.10;42.90;;;;;;5009381;28;20416;-66
2021/05/05 02:29:20;;;;;;;0.60;0.60;;;21.10;43.00;;;;;;5010374;28;20412;-65
2021/05/05 02:31:47;;;;;;;2.50;0.60;;;21.10;43.00;;;;;;5006490;28;20435;-67
2021/05/05 02:34:13;;;;;;;0.98;0.70;;;21.10;42.90;;;;;;5009614;28;20799;-66
2021/05/05 02:36:39;;;;;;;1.30;0.73;;;21.10;43.20;;;;;;5008518;28;20422;-67
2021/05/05 02:39:06;;;;;;;1.15;0.70;;;21.10;42.80;;;;;;5011298;28;20786;-66
2021/05/05 02:41:33;;;;;;;4.32;0.90;;;21.00;42.60;;;;;;5008425;28;20410;-66
2021/05/05 02:43:59;;;;;;;2.20;0.80;;;21.00;42.90;;;;;;5009175;28;20440;-66
2021/05/05 02:46:25;;;;;;;2.92;0.70;;;21.00;42.60;;;;;;5010016;28;20481;-66
2021/05/05 02:48:52;;;;;;;2.10;0.80;;;21.00;42.60;;;;;;5008228;28;20429;-66
2021/05/05 02:51:18;;;;;;;2.60;0.60;;;21.00;42.40;;;;;;5006975;28;20478;-65
2021/05/05 02:53:44;;;;;;;1.20;0.60;;;21.00;42.90;;;;;;5007235;28;20917;-66
2021/05/05 02:56:10;;;;;;;1.70;0.70;;;21.00;43.00;;;;;;5007443;28;20979;-67
2021/05/05 02:58:36;;;;;;;2.20;0.90;;;21.00;42.90;;;;;;5008972;28;20415;-67
2021/05/05 03:01:03;;;;;;;1.42;0.80;;;21.00;42.80;;;;;;5002267;28;20420;-67
2021/05/05 03:03:29;;;;;;;2.60;0.90;;;21.00;42.90;;;;;;5008463;28;20420;-67
2021/05/05 03:05:56;;;;;;;1.42;0.70;;;21.10;43.00;;;;;;5008372;28;20425;-67
2021/05/05 03:08:22;;;;;;;2.10;0.80;;;21.10;42.90;;;;;;4983494;28;20472;-67
2021/05/05 03:10:48;;;;;;;3.20;0.60;;;21.10;42.60;;;;;;4993719;28;20528;-67
2021/05/05 03:13:14;;;;;;;1.33;0.55;;;21.20;42.10;;;;;;5004807;28;20423;-66
2021/05/05 03:15:40;;;;;;;1.95;0.68;;;21.20;42.10;;;;;;5006419;28;20772;-66
2021/05/05 03:18:07;;;;;;;1.40;0.75;;;21.20;42.10;;;;;;4978002;28;20411;-67
2021/05/05 03:20:33;;;;;;;2.00;0.80;;;21.20;42.10;;;;;;4980362;28;20424;-66
2021/05/05 03:23:00;;;;;;;1.40;0.70;;;21.20;42.00;;;;;;5006421;28;20897;-67
2021/05/05 03:25:26;;;;;;;1.33;0.70;;;21.20;41.90;;;;;;4985684;28;20494;-67
2021/05/05 03:27:52;;;;;;;1.33;0.90;;;21.30;41.80;;;;;;4997866;28;20432;-65
2021/05/05 03:30:20;;;;;;;1.45;0.82;;;21.30;41.60;;;;;;4995305;28;20471;-66
2021/05/05 03:32:46;;;;;;;1.13;0.60;;;21.30;41.60;;;;;;4986282;28;20443;-65
2021/05/05 03:35:12;;;;;;;0.80;0.60;;;21.30;41.70;;;;;;5004390;28;20425;-66
2021/05/05 03:37:38;;;;;;;2.85;0.80;;;21.30;41.80;;;;;;5002767;28;20423;-66
2021/05/05 03:40:06;;;;;;;1.50;0.73;;;21.30;42.10;;;;;;5001165;28;20411;-67
2021/05/05 03:42:32;;;;;;;1.17;0.80;;;21.30;42.10;;;;;;5007846;28;20421;-67
2021/05/05 03:44:59;;;;;;;1.50;0.60;;;21.30;41.90;;;;;;5009400;28;20403;-66
2021/05/05 03:47:25;;;;;;;1.70;0.57;;;21.30;41.80;;;;;;4988174;28;20418;-66
2021/05/05 03:49:51;;;;;;;1.20;0.70;;;21.30;41.80;;;;;;5001206;28;20421;-67
2021/05/05 03:52:17;;;;;;;1.60;0.80;;;21.30;41.90;;;;;;5002918;28;20425;-66
2021/05/05 03:54:43;;;;;;;0.93;0.70;;;21.30;42.00;;;;;;4997614;28;20407;-67
2021/05/05 03:57:10;;;;;;;0.82;0.60;;;21.30;42.30;;;;;;5011140;28;20509;-68
2021/05/05 03:59:36;;;;;;;2.60;1.10;;;21.30;42.20;;;;;;5006176;28;20491;-68
2021/05/05 04:02:02;;;;;;;2.20;0.90;;;21.20;42.20;;;;;;4994443;28;20434;-67
2021/05/05 04:04:28;;;;;;;1.00;0.60;;;21.20;42.20;;;;;;4992714;28;20438;-68
2021/05/05 04:06:56;;;;;;;2.00;0.80;;;21.20;42.10;;;;;;5010587;28;20440;-67
2021/05/05 04:09:22;;;;;;;1.27;0.60;;;21.20;42.20;;;;;;4987594;28;20901;-67
2021/05/05 04:11:48;;;;;;;1.52;0.50;;;21.20;42.00;;;;;;4993932;28;20426;-68
2021/05/05 04:14:15;;;;;;;1.30;0.70;;;21.20;42.20;;;;;;4983184;28;20917;-68
2021/05/05 04:16:41;;;;;;;0.88;0.70;;;21.20;42.10;;;;;;5009764;28;21005;-67
2021/05/05 04:19:08;;;;;;;1.13;0.63;;;21.20;42.00;;;;;;4990725;28;21014;-68
2021/05/05 04:21:34;;;;;;;0.93;0.80;;;21.20;42.10;;;;;;4989388;28;20441;-68
2021/05/05 04:24:00;;;;;;;1.20;0.60;;;21.20;42.10;;;;;;5008361;28;20433;-67
2021/05/05 04:26:26;;;;;;;1.40;0.70;;;21.30;42.00;;;;;;4995666;28;20422;-68
2021/05/05 04:28:52;;;;;;;1.80;0.80;;;21.30;42.20;;;;;;5015757;28;20408;-68
2021/05/05 04:31:19;;;;;;;1.77;0.80;;;21.30;42.10;;;;;;5010708;28;20471;-67
2021/05/05 04:33:46;;;;;;;2.75;0.90;;;21.30;42.30;;;;;;5012906;28;20532;-67
2021/05/05 04:36:12;;;;;;;1.65;0.70;;;21.30;42.20;;;;;;5010265;28;20402;-67
2021/05/05 04:38:38;;;;;;;1.85;0.68;;;21.30;42.30;;;;;;5011366;28;20403;-67
2021/05/05 04:41:04;;;;;;;1.23;0.82;;;21.30;42.10;;;;;;5012338;28;20415;-67
2021/05/05 04:43:30;;;;;;;2.00;1.00;;;21.30;42.00;;;;;;5013866;28;20415;-68
2021/05/05 04:45:56;;;;;;;2.13;0.90;;;21.30;42.00;;;;;;5013028;28;20536;-68
2021/05/05 04:48:23;;;;;;;6.32;1.10;;;21.30;41.80;;;;;;5007770;28;20411;-67
2021/05/05 04:50:49;;;;;;;2.10;0.98;;;21.30;41.90;;;;;;5004023;28;20467;-67
2021/05/05 04:53:16;;;;;;;1.97;1.10;;;21.20;41.90;;;;;;5010131;28;20430;-68
2021/05/05 04:55:42;;;;;;;1.60;0.77;;;21.20;41.90;;;;;;5010251;28;20774;-67
2021/05/05 04:58:08;;;;;;;1.40;0.70;;;21.20;41.90;;;;;;5011170;28;20475;-67
2021/05/05 05:00:34;;;;;;;4.50;1.13;;;21.20;42.70;;;;;;5009175;28;21179;-67
2021/05/05 05:03:01;;;;;;;2.30;0.88;;;21.20;42.00;;;;;;5007026;28;20462;-67
2021/05/05 05:05:27;;;;;;;2.35;0.95;;;21.20;42.90;;;;;;4985767;28;20423;-67
2021/05/05 05:07:54;;;;;;;2.75;0.60;;;21.20;42.10;;;;;;4996639;28;20423;-65
2021/05/05 05:10:20;;;;;;;2.30;0.63;;;21.20;41.90;;;;;;5010083;28;20437;-66
2021/05/05 05:12:46;;;;;;;1.60;0.90;;;21.30;41.90;;;;;;5000274;28;20428;-66
2021/05/05 05:15:13;;;;;;;2.20;0.80;;;21.30;41.40;;;;;;5008952;28;20437;-67
2021/05/05 05:17:39;;;;;;;2.10;0.70;;;21.40;41.40;;;;;;5002620;28;20424;-66
2021/05/05 05:20:09;;;;;;;3.10;0.80;;;21.40;41.20;;;;;;5009779;28;20420;-67
2021/05/05 05:22:35;;;;;;;2.30;0.70;;;21.50;41.30;;;;;;5009978;28;20423;-66
2021/05/05 05:25:02;;;;;;;1.10;0.70;;;21.40;41.10;;;;;;5010672;28;21043;-67
2021/05/05 05:27:28;;;;;;;1.77;0.77;;;21.40;41.10;;;;;;4999542;28;20470;-67
2021/05/05 05:29:54;;;;;;;5.88;0.90;;;21.40;41.10;;;;;;5009051;28;20448;-69
2021/05/05 05:32:20;;;;;;;2.00;0.90;;;21.40;42.20;;;;;;5010685;28;20420;-67
2021/05/05 05:34:46;;;;;;;3.10;1.10;;;21.30;41.30;;;;;;5009641;28;20418;-67
2021/05/05 05:37:12;;;;;;;3.20;0.95;;;21.30;41.20;;;;;;5009142;28;20426;-66
2021/05/05 05:39:39;;;;;;;3.75;1.20;;;21.40;41.10;;;;;;5010231;28;20419;-66
2021/05/05 05:42:06;;;;;;;2.35;0.80;;;21.40;41.00;;;;;;5000185;28;20556;-66
2021/05/05 05:44:32;;;;;;;3.20;0.90;;;21.40;41.00;;;;;;4997745;28;20512;-67
2021/05/05 05:46:58;;;;;;;2.10;1.10;;;21.40;41.10;;;;;;5020975;28;20419;-66
2021/05/05 05:49:24;;;;;;;3.20;1.05;;;21.30;41.20;;;;;;4989525;28;20432;-67
2021/05/05 05:51:51;;;;;;;2.78;1.55;;;21.30;41.30;;;;;;4990305;28;20847;-68
2021/05/05 05:54:17;;;;;;;3.00;0.90;;;21.30;41.70;;;;;;5005370;28;20419;-66
2021/05/05 05:56:44;;;;;;;2.38;1.00;;;21.30;41.60;;;;;;5006660;28;20790;-66
2021/05/05 05:59:10;;;;;;;2.00;0.90;;;21.20;41.10;;;;;;5006402;28;20423;-66
2021/05/05 06:01:36;;;;;;;2.30;1.30;;;21.20;41.00;;;;;;4994622;28;20427;-66
2021/05/05 06:04:02;;;;;;;3.55;1.20;;;21.20;41.00;;;;;;5000356;28;20408;-67
2021/05/05 06:06:28;;;;;;;1.70;0.90;;;21.20;41.10;;;;;;4988268;28;20450;-67
2021/05/05 06:08:54;;;;;;;1.23;1.05;;;21.20;41.20;;;;;;4988812;28;20492;-66
2021/05/05 06:11:21;;;;;;;3.00;0.90;;;21.30;41.40;;;;;;5006998;28;20903;-66
2021/05/05 06:13:48;;;;;;;3.30;1.10;;;21.30;41.40;;;;;;4978670;28;20864;-67
2021/05/05 06:16:14;;;;;;;3.92;0.98;;;21.30;41.50;;;;;;4977846;28;20492;-66
2021/05/05 06:18:40;;;;;;;1.98;0.85;;;21.30;41.70;;;;;;5004231;28;20425;-67
2021/05/05 06:21:07;;;;;;;1.80;1.00;;;21.30;41.60;;;;;;4994734;28;20468;-66
2021/05/05 06:23:33;;;;;;;0.90;0.80;;;21.30;41.80;;;;;;4996280;28;20444;-66
2021/05/05 06:25:59;;;;;;;3.33;0.85;;;21.20;41.70;;;;;;4998633;28;20423;-66
2021/05/05 06:28:25;;;;;;;1.70;0.80;;;21.20;41.90;;;;;;5005646;28;20429;-67
2021/05/05 06:30:54;;;;;;;3.15;1.20;;;21.20;42.00;;;;;;4993627;28;20492;-66
2021/05/05 06:33:20;;;;;;;2.28;1.20;;;21.20;42.10;;;;;;5002635;28;20432;-66
2021/05/05 06:35:46;;;;;;;2.10;0.80;;;21.20;42.20;;;;;;4999691;28;20413;-67
2021/05/05 06:38:12;;;;;;;1.85;1.00;;;21.10;42.10;;;;;;4999014;28;20430;-66
2021/05/05 06:40:38;;;;;;;2.10;0.80;;;21.10;42.10;;;;;;4996816;28;20447;-67
2021/05/05 06:43:04;;;;;;;1.80;1.40;;;21.10;42.20;;;;;;5006747;28;20599;-67
2021/05/05 06:45:30;;;;;;;2.60;1.10;;;21.20;42.30;;;;;;4990181;28;20442;-66
2021/05/05 06:47:57;;;;;;;2.40;1.30;;;21.20;42.20;;;;;;4995655;28;20439;-66
2021/05/05 06:50:25;;;;;;;1.90;1.00;;;21.20;42.10;;;;;;4975970;28;20424;-67
2021/05/05 06:52:51;;;;;;;3.95;1.00;;;21.20;42.10;;;;;;4986195;28;20422;-66
2021/05/05 06:55:17;;;;;;;1.50;1.00;;;21.20;42.20;;;;;;4992443;28;20419;-67
2021/05/05 06:57:44;;;;;;;1.57;1.40;;;21.20;42.30;;;;;;4987528;28;20864;-67
2021/05/05 07:00:11;;;;;;;1.98;1.17;;;21.20;42.30;;;;;;4986671;28;20982;-66
2021/05/05 07:02:37;;;;;;;2.20;1.20;;;21.20;42.40;;;;;;4986269;28;20489;-66
2021/05/05 07:05:05;;;;;;;2.23;0.83;;;21.10;42.40;;;;;;4990792;28;21195;-67
2021/05/05 07:07:31;;;;;;;1.70;0.80;;;21.10;43.10;;;;;;4981353;28;20430;-67
2021/05/05 07:09:57;;;;;;;1.02;0.93;;;21.10;42.40;;;;;;4994922;28;20424;-66
2021/05/05 07:12:24;;;;;;;2.65;0.70;;;21.10;42.40;;;;;;4999546;28;20422;-66
2021/05/05 07:14:50;;;;;;;2.90;0.80;;;21.10;42.40;;;;;;4998755;28;21043;-68
2021/05/05 07:17:16;;;;;;;0.73;0.65;;;21.10;42.70;;;;;;4998298;28;20872;-67
2021/05/05 07:19:42;;;;;;;2.83;0.80;;;21.10;43.50;;;;;;4997600;28;20847;-65
2021/05/05 07:22:09;;;;;;;1.03;0.83;;;21.10;44.20;;;;;;4980903;28;20450;-65
2021/05/05 07:24:35;;;;;;;3.60;0.90;;;21.10;43.60;;;;;;5006898;28;20429;-66
2021/05/05 07:27:01;;;;;;;1.23;0.80;;;21.10;43.40;;;;;;5000106;28;20432;-66
2021/05/05 07:29:27;;;;;;;2.70;0.90;;;21.10;43.60;;;;;;4998011;28;20424;-67
2021/05/05 07:31:54;;;;;;;1.60;0.80;;;21.10;43.80;;;;;;4997073;28;20416;-67
2021/05/05 07:34:21;;;;;;;2.70;1.00;;;21.10;43.80;;;;;;4998544;28;20425;-67
2021/05/05 07:36:49;;;;;;;1.48;0.70;;;21.10;44.60;;;;;;5001350;28;20435;-67
2021/05/05 07:39:28;;;;;;;1.50;0.80;;;21.00;44.10;;;;;;4997684;28;20808;-67
2021/05/05 07:47:26;;;;;;;2.08;1.05;;;21.00;44.80;;;;;;4998660;28;20447;-67
2021/05/05 07:49:55;;;;;;;3.10;0.90;;;21.00;45.30;;;;;;4985321;28;20428;-67
2021/05/05 07:52:21;;;;;;;2.28;0.70;;;21.00;45.40;;;;;;4990338;28;20429;-67
2021/05/05 07:54:48;;;;;;;2.25;0.70;;;20.90;45.50;;;;;;4980264;28;20425;-67
2021/05/05 07:57:14;;;;;;;2.80;1.00;;;21.00;45.70;;;;;;4999440;28;20403;-67
2021/05/05 07:59:40;;;;;;;1.00;0.70;;;21.00;46.30;;;;;;4989093;28;20483;-67
2021/05/05 08:02:07;;;;;;;1.60;1.00;;;21.00;46.10;;;;;;4978271;28;20408;-67
2021/05/05 08:04:33;;;;;;;1.30;0.70;;;21.00;46.10;;;;;;4997440;28;20409;-67
2021/05/05 08:07:00;;;;;;;2.35;0.90;;;21.00;46.20;;;;;;4992362;28;20411;-67
2021/05/05 08:09:26;;;;;;;1.30;0.60;;;21.10;46.50;;;;;;5002306;28;20824;-67
2021/05/05 08:11:53;;;;;;;1.75;0.80;;;21.10;46.60;;;;;;4988764;28;20427;-67
2021/05/05 08:14:19;;;;;;;0.90;0.60;;;21.20;46.60;;;;;;5010484;28;20437;-67
2021/05/05 08:16:45;;;;;;;3.25;0.90;;;21.20;46.70;;;;;;5002550;28;20430;-67
2021/05/05 08:19:12;;;;;;;1.85;0.85;;;21.20;46.90;;;;;;4996439;28;20416;-67
2021/05/05 08:21:38;;;;;;;1.00;0.70;;;21.20;46.90;;;;;;4986611;28;20417;-67
2021/05/05 08:24:05;;;;;;;1.00;0.70;;;21.20;47.10;;;;;;5004275;28;21016;-67
2021/05/05 08:26:31;;;;;;;2.35;0.80;;;21.20;47.20;;;;;;4989896;28;20411;-67
2021/05/05 08:28:58;;;;;;;1.90;0.90;;;21.20;47.10;;;;;;4979710;28;20423;-67
2021/05/05 08:31:25;;;;;;;1.35;0.80;;;21.20;47.10;;;;;;4984312;28;20528;-66
2021/05/05 08:33:51;;;;;;;1.63;1.10;;;21.20;46.90;;;;;;4990589;28;20422;-67
2021/05/05 08:36:17;;;;;;;1.65;0.90;;;21.20;47.10;;;;;;4987005;28;20412;-67
2021/05/05 08:38:43;;;;;;;2.00;0.80;;;21.30;47.10;;;;;;4991380;28;21236;-67
2021/05/05 08:41:10;;;;;;;2.25;0.93;;;21.30;47.00;;;;;;4989339;28;20920;-67
2021/05/05 08:43:36;;;;;;;1.98;0.80;;;21.40;46.90;;;;;;4999476;28;20498;-67
2021/05/05 08:46:05;;;;;;;0.80;0.80;;;21.40;46.70;;;;;;4993411;28;20748;-67
2021/05/05 08:48:31;;;;;;;2.00;0.93;;;21.40;46.90;;;;;;4996349;28;20854;-67
2021/05/05 08:50:58;;;;;;;1.80;0.80;;;21.30;46.80;;;;;;4987177;28;20970;-67
2021/05/05 08:53:24;;;;;;;1.40;0.90;;;21.30;46.90;;;;;;4994866;28;20451;-67
2021/05/05 08:55:50;;;;;;;3.10;0.90;;;21.30;47.10;;;;;;4991163;28;20419;-66
2021/05/05 08:58:16;;;;;;;1.00;0.90;;;21.30;47.10;;;;;;5000914;28;20412;-66
2021/05/05 09:00:42;;;;;;;1.10;0.60;;;21.20;47.20;;;;;;4972532;28;20428;-67
2021/05/05 09:03:09;;;;;;;1.38;0.80;;;21.20;47.40;;;;;;4990573;28;20463;-67
2021/05/05 09:05:54;;;;;;;1.25;1.10;;;21.20;47.60;;;;;;4983557;28;20478;-67
2021/05/05 09:08:21;;;;;;;0.88;0.80;;;21.20;47.10;;;;;;4986767;28;20971;-67
2021/05/05 09:10:56;;;;;;;1.60;0.70;;;21.20;47.30;;;;;;4990858;28;20435;-66
2021/05/05 09:13:37;;;;;;;1.00;0.77;;;21.20;47.40;;;;;;4991223;28;20484;-67
2021/05/05 09:16:07;;;;;;;1.60;1.07;;;21.30;47.60;;;;;;4988149;28;20415;-66
2021/05/05 09:18:53;;;;;;;1.30;0.80;;;21.30;47.40;;;;;;4999174;28;20424;-66
2021/05/05 09:21:24;;;;;;;1.73;0.90;;;21.30;47.30;;;;;;4995967;28;20422;-66
2021/05/05 09:23:50;;;;;;;2.85;1.13;;;21.30;47.30;;;;;;5007208;28;20813;-65
2021/05/05 09:26:34;;;;;;;2.90;0.98;;;21.30;47.70;;;;;;5000059;28;20420;-65
2021/05/05 09:29:00;;;;;;;3.60;1.20;;;21.30;47.50;;;;;;5003422;28;20509;-66
2021/05/05 09:31:32;;;;;;;2.70;0.90;;;21.30;47.70;;;;;;4997994;28;20421;-66
2021/05/05 09:33:59;;;;;;;3.70;0.80;;;21.30;47.60;;;;;;4998317;28;20462;-66
2021/05/05 09:36:26;;;;;;;1.27;0.90;;;21.30;47.40;;;;;;4982435;28;20470;-66
2021/05/05 09:38:52;;;;;;;0.70;0.70;;;21.40;47.80;;;;;;4998992;28;20423;-66
2021/05/05 09:41:19;;;;;;;2.10;1.10;;;21.40;47.80;;;;;;4991108;28;20428;-66
2021/05/05 09:43:45;;;;;;;2.50;0.80;;;21.40;47.60;;;;;;4995209;28;20405;-66
2021/05/05 09:46:40;;;;;;;0.80;0.70;;;21.50;47.50;;;;;;5000732;28;20417;-66
2021/05/05 09:49:25;;;;;;;1.50;0.80;;;21.50;47.60;;;;;;5004553;28;20483;-66
2021/05/05 09:51:52;;;;;;;1.20;0.80;;;21.40;47.20;;;;;;4983442;28;20438;-66
2021/05/05 09:54:26;;;;;;;2.33;0.77;;;21.40;47.40;;;;;;4992636;28;20431;-65
2021/05/05 09:56:52;;;;;;;1.00;0.80;;;21.40;47.50;;;;;;4987324;28;20429;-67
2021/05/05 09:59:19;;;;;;;1.10;0.70;;;21.40;47.80;;;;;;5001606;28;20436;-66
2021/05/05 10:01:59;;;;;;;2.03;1.10;;;21.40;47.80;;;;;;4971743;28;20974;-66
2021/05/05 10:04:26;;;;;;;2.40;1.00;;;21.30;47.70;;;;;;4985014;28;20808;-66
2021/05/05 10:06:56;;;;;;;2.50;0.80;;;21.30;48.10;;;;;;4959032;28;20427;-66
2021/05/05 10:09:24;;;;;;;0.82;0.80;;;21.30;47.70;;;;;;5003996;28;20508;-66
2021/05/05 10:11:50;;;;;;;1.77;1.00;;;21.30;47.70;;;;;;4993474;28;20429;-67
2021/05/05 10:14:17;;;;;;;1.98;0.80;;;21.30;47.80;;;;;;5003678;28;20423;-66
2021/05/05 10:16:44;;;;;;;2.50;0.80;;;21.20;47.60;;;;;;4986690;28;20470;-65
2021/05/05 10:19:13;;;;;;;2.20;0.90;;;21.30;47.70;;;;;;4996927;28;20873;-67
2021/05/05 10:21:42;;;;;;;0.90;0.70;;;21.30;47.60;;;;;;4975907;28;20804;-65
2021/05/05 10:24:09;;;;;;;1.45;0.77;;;21.30;47.80;;;;;;4996947;28;20411;-65
2021/05/05 10:26:35;;;;;;;1.90;1.00;;;21.30;47.60;;;;;;4996685;28;21583;-66
2021/05/05 10:29:01;;;;;;;1.63;0.90;;;21.30;47.60;;;;;;4986747;28;20412;-66
2021/05/05 10:31:28;;;;;;;1.35;0.80;;;21.40;47.50;;;;;;4995730;28;20540;-65
2021/05/05 10:33:56;;;;;;;2.60;1.00;;;21.40;47.40;;;;;;5000091;28;20431;-65
2021/05/05 10:36:34;;;;;;;1.63;1.20;;;21.40;47.40;;;;;;5000657;28;20500;-67
2021/05/05 10:39:03;;;;;;;1.40;0.82;;;21.40;47.30;;;;;;4999265;28;20436;-67
2021/05/05 10:41:30;;;;;;;0.87;0.70;;;21.30;47.50;;;;;;4980700;28;20417;-65
2021/05/05 10:43:57;;;;;;;1.20;0.70;;;21.30;47.50;;;;;;5007883;28;20424;-65
2021/05/05 10:46:25;;;;;;;1.30;0.80;;;21.30;47.80;;;;;;4992780;28;20506;-67
2021/05/05 10:49:02;;;;;;;1.50;0.85;;;21.30;47.70;;;;;;5000651;28;20496;-67
2021/05/05 10:51:59;;;;;;;1.17;0.53;;;21.30;47.70;;;;;;4973879;28;20459;-66
2021/05/05 10:54:50;;;;;;;1.38;0.90;;;21.30;47.80;;;;;;4989849;28;20526;-65
2021/05/05 10:57:16;;;;;;;1.45;0.80;;;21.40;47.50;;;;;;4996136;28;20474;-65
2021/05/05 11:00:12;;;;;;;1.52;0.77;;;21.40;47.80;;;;;;5000279;28;20483;-66
2021/05/05 11:02:51;;;;;;;2.50;0.90;;;21.40;47.90;;;;;;5000132;28;20906;-66
2021/05/05 11:05:19;;;;;;;0.88;0.77;;;21.40;47.60;;;;;;4986270;28;20780;-65
2021/05/05 11:07:49;;;;;;;2.72;0.60;;;21.40;47.60;;;;;;4980930;28;20427;-65
2021/05/05 11:10:48;;;;;;;1.10;1.00;;;21.40;47.60;;;;;;4978556;28;20553;-65
2021/05/05 11:13:42;;;;;;;1.70;0.70;;;21.30;47.30;;;;;;4999020;28;20430;-66
2021/05/05 11:16:09;;;;;;;0.80;0.70;;;21.30;47.50;;;;;;4976161;28;20444;-64
2021/05/05 11:18:48;;;;;;;0.85;0.80;;;21.30;47.60;;;;;;4982572;28;20432;-66
2021/05/05 11:21:39;;;;;;;1.63;1.10;;;21.20;47.50;;;;;;4994477;28;20522;-67
2021/05/05 11:24:33;;;;;;;1.30;0.80;;;21.20;47.40;;;;;;4978306;28;20419;-67
2021/05/05 11:27:00;;;;;;;0.85;0.70;;;21.20;47.60;;;;;;4984950;28;21872;-66
2021/05/05 11:29:35;;;;;;;1.75;0.60;;;21.20;47.60;;;;;;5000148;28;20421;-67
2021/05/05 11:32:06;;;;;;;1.25;0.82;;;21.20;47.30;;;;;;4996608;28;21009;-66
2021/05/05 11:34:33;;;;;;;1.67;0.80;;;21.20;47.60;;;;;;4996113;28;20923;-66
2021/05/05 11:37:05;;;;;;;1.33;0.77;;;21.20;48.00;;;;;;4997264;28;20425;-67
2021/05/05 11:39:33;;;;;;;1.25;0.70;;;21.20;48.00;;;;;;4993087;28;20411;-67
2021/05/05 11:42:01;;;;;;;0.98;0.65;;;21.20;48.10;;;;;;5002499;28;20467;-67
2021/05/05 11:44:35;;;;;;;0.98;0.70;;;21.20;47.60;;;;;;4981794;28;20426;-66
2021/05/05 11:47:01;;;;;;;1.40;0.80;;;21.20;47.60;;;;;;4988228;28;21109;-67
2021/05/05 11:49:32;;;;;;;0.90;0.60;;;21.20;47.70;;;;;;4976207;28;20419;-67
2021/05/05 11:51:58;;;;;;;0.82;0.60;;;21.20;47.60;;;;;;4999672;28;20446;-67
2021/05/05 11:54:29;;;;;;;2.22;0.93;;;21.20;47.60;;;;;;5007247;28;20493;-65
2021/05/05 11:57:03;;;;;;;2.33;0.70;;;21.30;47.70;;;;;;4991101;28;20423;-66
2021/05/05 11:59:29;;;;;;;0.82;0.60;;;21.30;47.70;;;;;;4998827;28;20531;-66
2021/05/05 12:02:02;;;;;;;0.88;0.52;;;21.30;47.80;;;;;;4994196;28;20428;-66
2021/05/05 12:04:28;;;;;;;0.60;0.60;;;21.30;47.80;;;;;;4995226;28;20417;-67
2021/05/05 12:06:55;;;;;;;1.60;0.90;;;21.30;47.90;;;;;;4991560;28;20435;-66
2021/05/05 12:09:26;;;;;;;1.38;0.88;;;21.20;47.90;;;;;;4979267;28;20571;-66
2021/05/05 12:12:22;;;;;;;0.80;0.80;;;21.20;48.30;;;;;;4981352;28;20428;-66
2021/05/05 12:14:50;;;;;;;0.80;0.60;;;21.20;48.40;;;;;;4995766;28;20447;-65
2021/05/05 12:17:25;;;;;;;0.60;0.50;;;21.20;48.20;;;;;;5002052;28;20418;-66
2021/05/05 12:20:07;;;;;;;0.80;0.60;;;21.20;48.30;;;;;;4987530;28;20450;-66
2021/05/05 12:22:34;;;;;;;0.70;0.70;;;21.20;48.10;;;;;;4998048;28;20507;-66
2021/05/05 12:25:05;;;;;;;1.20;0.60;;;21.20;48.40;;;;;;4995664;28;20417;-65
2021/05/05 12:27:32;;;;;;;1.20;0.50;;;21.20;48.30;;;;;;4994556;28;20423;-66
2021/05/05 12:29:58;;;;;;;1.60;0.80;;;21.20;48.00;;;;;;4984024;28;20424;-67
2021/05/05 12:32:25;;;;;;;0.60;0.60;;;21.20;48.40;;;;;;4995277;28;20424;-67
2021/05/05 12:34:55;;;;;;;0.60;0.60;;;21.20;48.30;;;;;;4994842;28;21181;-66
2021/05/05 12:37:24;;;;;;;0.88;0.70;;;21.20;48.30;;;;;;4976609;28;20563;-66
2021/05/05 12:39:52;;;;;;;1.00;0.60;;;21.20;47.80;;;;;;4982303;28;20461;-66
2021/05/05 12:42:18;;;;;;;0.60;0.50;;;21.30;48.40;;;;;;4996114;28;21133;-66
2021/05/05 12:44:45;;;;;;;1.27;0.60;;;21.30;48.20;;;;;;4993390;28;20463;-65
2021/05/05 12:47:14;;;;;;;0.82;0.60;;;21.30;48.10;;;;;;4995914;28;20408;-66
2021/05/05 12:49:41;;;;;;;2.50;0.90;;;21.30;48.00;;;;;;5000407;28;20425;-67
2021/05/05 12:52:23;;;;;;;0.98;0.50;;;21.30;48.00;;;;;;4985070;28;20431;-67
2021/05/05 12:54:49;;;;;;;1.27;0.60;;;21.30;48.10;;;;;;5008454;28;21980;-67
2021/05/05 12:57:16;;;;;;;1.50;0.70;;;21.30;48.20;;;;;;4981507;28;20418;-66